Airfield :







YOU CAN JOIN US ON...

 
LOGIN :

Register | Disclaimer

   EN    FR    IT 

 









Legend :    VFR   Marginal VFR   IFR   Intensive IFR   Very Intensive IFR
Visi :
Ceiling :
>= 8 km
>= 3000ft
5 to 8 km
1000 to 3000 ft
1500m to 5 km
500 to 1000 ft
800 to 1500m
200 to 500 ft
< 800m
< 200 ft
Symbols :   Thunderstorms  Fog  Heavy snow  Heavy precipitations  Wind > 20 kt






- Airport Elevation : 1040 ft


KAFN - Jaffrey Silver Ranch

CURRENT METAR :
  • 220109Z AUTO 20007KT 10SM BKN019 24/21 A2963 RMK AO2 T02440206 TSNO

EXPIRED METARs :
  • 220052Z AUTO 19009G15KT 10SM SCT020 24/21 A2963 RMK AO2 SLP029 T02440206 TSNO
  • 220024Z AUTO 20012G16KT 10SM SCT026 25/20 A2962 RMK AO2 T02500200 TSNO
  • 212352Z AUTO 19008KT 170V230 10SM BKN025 26/20 A2963 RMK AO2 SLP030 T02560200 10311 20256 55000 TSNO
  • 212332Z AUTO 21008KT 10SM BKN025 26/20 A2964 RMK AO2 PRESRR T02560200 TSNO
  • 212252Z AUTO 20010KT 10SM CLR 27/19 A2961 RMK AO2 SLP025 T02670194 TSNO

TAF N/A
KZBW FIR / North America



MET'MAP, your aeronautical weather chart ! - Copyright ORBIFLY December 2007 - Disclaimer

ORBIFLY MET'MAP TEAM :

Programming & Development : Alexandra Zaïnal
Concept & original design : Baudouin d'Aumeries
Assistance for programming : Marc-Olivier Méhu
Technical & hardware support : Manuel Goepfert

Contact : metmap@orbifly.com




SOURCES & CREDITS :

   NOAA